Latest Coastal Weather Observations for Middle Percy Island

IDQ60701

Issued at 10:12 am EST Friday 29 July 2016 (issued every 10 minutes, with the page automatically refreshed every 10 minutes)

About coastal observations | Map of coastal stations | Coastal observations for QLD | Marine services | Other Formats
Station Details ID: 200001 Name: MIDDLE PERCY ISLAND Lat: -21.66 Lon: 150.27 Height: 208.7 m
Data from the previous 72 hours. | See also: Recent months at Middle Percy Island
Date/Time
EST
Temp
°C
Wind Pressure Rain since
9am
mm
Weather Cloud Vis
km
Sea
Height
m
Swell
Dir  Spd
kts
Gust
kts
hPa Trend Height
m
Period
s
Dir
29/10:00am 19.1 SSE 15 19 1021.3 - 0.0 - - - - - - -
29/09:30am 18.4 SSE 17 22 1021.5 - 0.0 - - - - - - -
29/09:00am 18.2 SSE 17 23 1021.4 - 0.0 - - - - - - -
29/08:30am 17.8 SSE 17 23 1021.3 - 0.0 - - - - - - -
29/08:00am 17.6 SSE 16 21 1021.2 - 0.0 - - - - - - -
29/07:30am 17.7 SSE 15 19 1021.0 - 0.0 - - - - - - -
29/07:00am 17.6 SSE 14 19 1020.7 - 0.0 - - - - - - -
29/06:30am 17.5 SSE 13 18 1020.3 - 0.0 - - - - - - -
29/06:00am 17.5 SSE 13 17 1019.9 - 0.0 - - - - - - -
29/05:30am 17.7 S 13 17 1019.7 - 0.0 - - - - - - -
29/05:00am 17.6 S 11 14 1019.5 - 0.0 - - - - - - -
29/04:30am 17.5 S 11 14 1019.6 - 0.0 - - - - - - -
29/04:00am 17.7 SSE 11 16 1019.7 - 0.0 - - - - - - -
29/03:30am 17.9 SSE 13 17 1019.5 - 0.0 - - - - - - -
29/03:00am 17.6 SE 12 16 1019.6 - 0.0 - - - - - - -
29/02:30am 17.5 SE 12 18 1019.8 - 0.0 - - - - - - -
29/02:00am 17.5 SE 14 19 1020.0 - 0.0 - - - - - - -
29/01:30am 17.2 SSE 13 19 1020.2 - 0.0 - - - - - - -
29/01:00am 17.4 SSE 14 19 1020.4 - 0.0 - - - - - - -
29/12:30am 17.3 SSE 14 19 1020.8 - 0.0 - - - - - - -
29/12:00am 17.2 SSE 13 18 1021.1 - 0.0 - - - - - - -
 
Date/Time
EST
Temp
°C
Wind Pressure Rain since
9am
mm
Weather Cloud Vis
km
Sea
Height
m
Swell
Dir  Spd
kts
Gust
kts
hPa Trend Height
m
Period
s
Dir
28/11:30pm 16.9 SSE 15 20 1021.3 - 0.0 - - - - - - -
28/11:00pm 16.8 SSE 15 22 1021.6 - 0.0 - - - - - - -
28/10:30pm 16.8 SSE 16 22 1021.7 - 0.0 - - - - - - -
28/10:00pm 17.0 SSE 17 23 1022.1 - 0.0 - - - - - - -
28/09:30pm 17.0 SSE 16 22 1021.9 - 0.0 - - - - - - -
28/09:00pm 16.9 SSE 15 20 1021.7 - 0.0 - - - - - - -
28/08:30pm 16.9 SSE 17 23 1021.7 - 0.0 - - - - - - -
28/08:00pm 17.0 SSE 18 24 1021.5 - 0.0 - - - - - - -
28/07:30pm 16.8 SSE 16 19 1021.4 - 0.0 - - - - - - -
28/07:00pm 16.6 SSE 15 20 1021.2 - 0.0 - - - - - - -
28/06:30pm 16.5 SSE 14 19 1021.1 - 0.0 - - - - - - -
28/06:00pm 16.4 SSE 13 19 1020.9 - 0.0 - - - - - - -
28/05:30pm 16.4 SSE 14 19 1020.5 - 0.0 - - - - - - -
28/05:00pm 16.9 SSE 12 17 1020.5 - 0.0 - - - - - - -
28/04:30pm 17.3 SSE 14 18 1020.2 - 0.0 - - - - - - -
28/04:00pm 17.7 SSE 14 18 1020.1 - 0.0 - - - - - - -
28/03:30pm 17.9 SSE 15 21 1020.0 - 0.0 - - - - - - -
28/03:00pm 18.4 SSE 15 20 1020.0 - 0.0 - - - - - - -
28/02:30pm 18.5 SSE 15 23 1020.2 - 0.0 - - - - - - -
28/02:00pm 18.8 SSE 15 20 1020.4 - 0.0 - - - - - - -
28/01:30pm 18.9 SSE 16 21 1020.7 - 0.0 - - - - - - -
28/01:00pm 18.9 SSE 16 21 1020.8 - 0.0 - - - - - - -
28/12:30pm 18.9 SSE 20 28 1021.0 - 0.0 - - - - - - -
28/12:00pm 18.9 SSE 20 26 1021.3 - 0.0 - - - - - - -
28/11:30am 19.1 SSE 18 25 1021.6 - 0.0 - - - - - - -
28/11:00am 18.8 SSE 19 25 1022.0 - 0.0 - - - - - - -
28/10:30am 18.8 SSE 18 25 1022.2 - 0.0 - - - - - - -
28/10:00am 18.9 SSE 18 23 1022.5 - 0.0 - - - - - - -
28/09:30am 18.6 SSE 18 26 1022.6 - 0.0 - - - - - - -
28/09:00am 18.5 SSE 19 25 1022.3 - 0.0 - - - - - - -
28/08:30am 18.2 SSE 18 23 1022.2 - 0.0 - - - - - - -
28/08:00am 17.9 SSE 18 24 1022.1 - 0.0 - - - - - - -
28/07:30am 17.8 SSE 20 26 1021.4 - 0.0 - - - - - - -
28/07:00am 17.6 SSE 19 26 1021.1 - 0.0 - - - - - - -
28/06:30am 17.6 SSE 20 26 1020.8 - 0.0 - - - - - - -
28/06:00am 17.7 SSE 19 24 1020.4 - 0.0 - - - - - - -
28/05:30am 17.5 SSE 19 25 1020.4 - 0.0 - - - - - - -
28/05:00am 17.8 SSE 18 24 1020.2 - 0.0 - - - - - - -
28/04:30am 17.8 SSE 17 23 1020.1 - 0.0 - - - - - - -
28/04:00am 18.1 S 20 25 1020.0 - 0.0 - - - - - - -
28/03:30am 18.1 S 23 28 1020.1 - 0.0 - - - - - - -
28/03:00am 18.2 S 22 28 1020.2 - 0.0 - - - - - - -
28/02:30am 18.5 S 23 29 1020.2 - 0.0 - - - - - - -
28/02:00am 18.3 S 19 25 1020.5 - 0.0 - - - - - - -
28/01:30am 18.3 S 16 20 1020.9 - 0.0 - - - - - - -
28/01:00am 18.6 S 14 19 1021.0 - 0.0 - - - - - - -
28/12:30am 18.4 S 13 17 1021.2 - 0.0 - - - - - - -
28/12:00am 18.6 S 13 16 1021.0 - 0.0 - - - - - - -
 
Date/Time
EST
Temp
°C
Wind Pressure Rain since
9am
mm
Weather Cloud Vis
km
Sea
Height
m
Swell
Dir  Spd
kts
Gust
kts
hPa Trend Height
m
Period
s
Dir
27/11:30pm 18.8 S 16 21 1020.9 - 0.0 - - - - - - -
27/11:00pm 19.2 S 15 19 1020.9 - 0.0 - - - - - - -
27/10:30pm 19.0 S 10 14 1020.9 - 0.0 - - - - - - -
27/10:00pm 19.3 S 11 13 1020.5 - 0.0 - - - - - - -
27/09:30pm 18.9 SSE 11 13 1020.5 - 0.0 - - - - - - -
27/09:00pm 18.7 SSE 10 12 1020.5 - 0.0 - - - - - - -
27/08:30pm 18.7 SSE 8 10 1020.3 - 0.0 - - - - - - -
27/08:00pm 18.9 SE 8 10 1020.1 - 0.0 - - - - - - -
27/07:30pm 18.8 ESE 7 9 1019.8 - 0.0 - - - - - - -
27/07:00pm 18.8 ESE 7 9 1019.6 - 0.0 - - - - - - -
27/06:30pm 18.6 ESE 6 8 1019.2 - 0.0 - - - - - - -
27/06:00pm 18.9 ESE 6 8 1019.0 - 0.0 - - - - - - -
27/05:30pm 19.1 ESE 6 8 1018.8 - 0.0 - - - - - - -
27/05:00pm 19.7 SE 7 9 1018.5 - 0.0 - - - - - - -
27/04:30pm 20.2 SE 7 8 1018.0 - 0.0 - - - - - - -
27/04:00pm 20.8 SSE 6 8 1017.9 - 0.0 - - - - - - -
27/03:30pm 21.2 SSE 6 10 1017.4 - 0.0 - - - - - - -
27/03:00pm 21.5 SSE 6 10 1017.3 - 0.0 - - - - - - -
27/02:30pm 21.4 S 8 11 1017.3 - 0.0 - - - - - - -
27/02:00pm 21.4 S 9 12 1017.3 - 0.0 - - - - - - -
27/01:30pm 21.4 S 9 13 1017.7 - 0.0 - - - - - - -
27/01:00pm 21.1 SSE 8 11 1017.9 - 0.0 - - - - - - -
27/12:30pm 20.8 S 10 13 1018.2 - 0.0 - - - - - - -
27/12:00pm 20.8 S 10 13 1018.4 - 0.0 - - - - - - -
27/11:30am 21.1 S 10 14 1018.8 - 0.0 - - - - - - -
27/11:00am 21.0 S 9 13 1019.1 - 0.0 - - - - - - -
27/10:30am 20.4 S 8 11 1019.3 - 0.0 - - - - - - -
27/10:00am 20.8 SSE 6 9 1019.5 - 0.0 - - - - - - -
27/09:30am 20.6 SSE 6 9 1019.7 - 0.0 - - - - - - -
27/09:00am 19.9 S 7 10 1019.8 - 0.0 - - - - - - -
27/08:30am 19.6 SSE 6 8 1019.7 - 0.0 - - - - - - -
27/08:00am 19.3 SSE 6 7 1019.5 - 0.0 - - - - - - -
27/07:30am 18.8 SE 6 7 1019.2 - 0.0 - - - - - - -
27/07:00am 18.4 SSE 7 8 1019.0 - 0.0 - - - - - - -
27/06:30am 18.5 S 8 10 1018.8 - 0.0 - - - - - - -
27/06:00am 18.6 S 9 12 1018.5 - 0.0 - - - - - - -
27/05:30am 18.8 S 10 11 1018.5 - 0.0 - - - - - - -
27/05:00am 18.5 S 7 10 1018.3 - 0.0 - - - - - - -
27/04:30am 18.6 SSE 6 8 1018.1 - 0.0 - - - - - - -
27/04:00am 18.6 SSE 7 8 1018.1 - 0.0 - - - - - - -
27/03:30am 18.7 SSE 7 8 1018.1 - 0.0 - - - - - - -
27/03:00am 18.9 SSE 7 9 1018.1 - 0.0 - - - - - - -
27/02:30am 18.8 SE 7 9 1018.2 - 0.0 - - - - - - -
27/02:00am 19.0 SE 8 10 1018.4 - 0.0 - - - - - - -
27/01:30am 19.0 SE 7 9 1018.7 - 0.0 - - - - - - -
27/01:00am 19.1 SE 7 9 1018.8 - 0.0 - - - - - - -
27/12:30am 19.1 SE 8 11 1018.7 - 0.0 - - - - - - -
27/12:00am 19.1 SE 8 12 1018.7 - 0.0 - - - - - - -
 
Date/Time
EST
Temp
°C
Wind Pressure Rain since
9am
mm
Weather Cloud Vis
km
Sea
Height
m
Swell
Dir  Spd
kts
Gust
kts
hPa Trend Height
m
Period
s
Dir
26/11:30pm 19.2 SE 10 14 1018.6 - 0.0 - - - - - - -
26/11:00pm 19.3 SE 10 13 1018.6 - 0.0 - - - - - - -
26/10:30pm 19.2 SE 10 13 1018.5 - 0.0 - - - - - - -
26/10:00pm 19.1 SE 10 13 1018.5 - 0.0 - - - - - - -
26/09:30pm 18.9 ESE 8 10 1018.4 - 0.0 - - - - - - -
26/09:00pm 19.0 E 8 11 1018.3 - 0.0 - - - - - - -
26/08:30pm 18.8 ESE 7 10 1018.2 - 0.0 - - - - - - -
26/08:00pm 18.9 ESE 9 12 1018.2 - 0.0 - - - - - - -
26/07:30pm 18.8 ESE 8 11 1018.1 - 0.0 - - - - - - -
26/07:00pm 18.8 ESE 8 11 1017.8 - 0.0 - - - - - - -
26/06:30pm 18.8 ESE 9 12 1017.3 - 0.0 - - - - - - -
26/06:00pm 18.8 SE 9 12 1017.1 - 0.0 - - - - - - -
26/05:30pm 18.9 SE 10 14 1016.8 - 0.0 - - - - - - -
26/05:00pm 19.2 SE 11 14 1016.5 - 0.0 - - - - - - -
26/04:30pm 19.6 SE 10 16 1016.4 - 0.0 - - - - - - -
26/04:00pm 20.1 SE 11 15 1016.3 - 0.0 - - - - - - -
26/03:30pm 20.8 SE 10 13 1016.3 - 0.0 - - - - - - -
26/03:00pm 20.8 SE 11 15 1016.4 - 0.0 - - - - - - -
26/02:30pm 21.9 SE 10 15 1016.6 - 0.0 - - - - - - -
26/02:00pm 21.6 SE 9 13 1016.8 - 0.0 - - - - - - -
26/01:30pm 21.3 SE 10 15 1016.8 - 0.0 - - - - - - -
26/01:00pm 21.2 SSE 11 15 1017.0 - 0.0 - - - - - - -
26/12:30pm 21.6 SSE 10 13 1017.4 - 0.0 - - - - - - -
26/12:00pm 21.5 SSE 10 16 1017.8 - 0.0 - - - - - - -
26/11:30am 21.8 SE 10 14 1018.3 - 0.0 - - - - - - -
26/11:00am 21.6 SSE 10 14 1018.4 - 0.0 - - - - - - -
26/10:30am 21.6 SSE 11 13 1018.6 - 0.0 - - - - - - -

Other Formats:

Comma delimited format used in spreadsheet applications
http://www.bom.gov.au/fwo/IDQ60701/IDQ60701.94372.axf

JavaScript Object Notation format (JSON) in row-major order
http://www.bom.gov.au/fwo/IDQ60701/IDQ60701.94372.json